KMHE/MHE METAR and TAF weather

Enter ICAO airport designator
Station Type Date Time Source
KMHE METAR 2021/04/18 01:53 UTC NOAA

KMHE 180153Z AUTO 32005KT 10SM BKN080 07/M03 A3009 RMK AO2 SLP197 T00721028


Station Type Date Time Source
KMHE Decoded METAR 2021/04/18 01:53 UTC NOAA

MITCHELL MUNICIPAL AIRPORT, SD, United States (KMHE) 43-46N 98-02W
Apr 17, 2021 - 09:53 PM EDT / 2021.04.18 0153 UTC
Wind: from the NW (320 degrees) at 6 MPH (5 KT):0
Visibility: 10 mile(s):0
Sky conditions: mostly cloudy
Temperature: 45.0 F (7.2 C)
Dew Point: 27.0 F (-2.8 C)
Relative Humidity: 48%
Pressure (altimeter): 30.09 in. Hg (1018 hPa)
ob: KMHE 180153Z AUTO 32005KT 10SM BKN080 07/M03 A3009 RMK AO2 SLP197 T00721028
cycle: 2

Station Type Date Time Source
KMHE TAF UTC NOAA

Error!

Example: see airport list